sensor_id;sensor_type;location;lat;lon;timestamp;P1;durP1;ratioP1;P2;durP2;ratioP2
24467;SDS011;12634;50.852;5.676;2023-07-20T00:02:11;6.35;;;3.42;;
24467;SDS011;12634;50.852;5.676;2023-07-20T00:04:38;6.40;;;3.90;;
24467;SDS011;12634;50.852;5.676;2023-07-20T00:07:05;6.85;;;3.25;;
24467;SDS011;12634;50.852;5.676;2023-07-20T00:09:32;7.00;;;3.67;;
24467;SDS011;12634;50.852;5.676;2023-07-20T00:12:01;5.55;;;3.67;;
24467;SDS011;12634;50.852;5.676;2023-07-20T00:14:28;6.97;;;3.90;;
24467;SDS011;12634;50.852;5.676;2023-07-20T00:16:56;5.78;;;3.92;;
24467;SDS011;12634;50.852;5.676;2023-07-20T00:19:24;6.53;;;3.80;;
24467;SDS011;12634;50.852;5.676;2023-07-20T00:21:52;7.82;;;4.13;;
24467;SDS011;12634;50.852;5.676;2023-07-20T00:24:19;5.80;;;3.63;;
24467;SDS011;12634;50.852;5.676;2023-07-20T00:26:47;8.80;;;3.80;;
24467;SDS011;12634;50.852;5.676;2023-07-20T00:29:15;7.32;;;4.25;;
24467;SDS011;12634;50.852;5.676;2023-07-20T00:31:42;7.70;;;4.18;;
24467;SDS011;12634;50.852;5.676;2023-07-20T00:34:10;6.60;;;3.65;;
24467;SDS011;12634;50.852;5.676;2023-07-20T00:36:37;8.85;;;4.30;;
24467;SDS011;12634;50.852;5.676;2023-07-20T00:39:04;7.07;;;3.78;;
24467;SDS011;12634;50.852;5.676;2023-07-20T00:41:31;8.30;;;4.32;;
24467;SDS011;12634;50.852;5.676;2023-07-20T00:43:59;7.07;;;3.40;;
24467;SDS011;12634;50.852;5.676;2023-07-20T00:46:27;6.57;;;3.90;;
24467;SDS011;12634;50.852;5.676;2023-07-20T00:48:54;7.07;;;3.65;;
24467;SDS011;12634;50.852;5.676;2023-07-20T00:51:22;4.93;;;3.53;;
24467;SDS011;12634;50.852;5.676;2023-07-20T00:53:51;6.00;;;4.07;;
24467;SDS011;12634;50.852;5.676;2023-07-20T00:56:18;8.45;;;3.85;;
24467;SDS011;12634;50.852;5.676;2023-07-20T00:58:46;6.53;;;3.50;;
24467;SDS011;12634;50.852;5.676;2023-07-20T01:01:14;4.95;;;3.17;;
24467;SDS011;12634;50.852;5.676;2023-07-20T01:03:42;8.93;;;4.13;;
24467;SDS011;12634;50.852;5.676;2023-07-20T01:06:11;6.32;;;3.78;;
24467;SDS011;12634;50.852;5.676;2023-07-20T01:08:47;8.15;;;3.45;;
24467;SDS011;12634;50.852;5.676;2023-07-20T01:11:27;8.02;;;3.80;;
24467;SDS011;12634;50.852;5.676;2023-07-20T01:14:00;6.82;;;3.40;;
24467;SDS011;12634;50.852;5.676;2023-07-20T01:16:27;9.35;;;3.47;;
24467;SDS011;12634;50.852;5.676;2023-07-20T01:18:56;7.63;;;3.45;;
24467;SDS011;12634;50.852;5.676;2023-07-20T01:21:24;4.93;;;2.92;;
24467;SDS011;12634;50.852;5.676;2023-07-20T01:24:05;7.65;;;3.33;;
24467;SDS011;12634;50.852;5.676;2023-07-20T01:33:07;7.63;;;3.30;;
24467;SDS011;12634;50.852;5.676;2023-07-20T01:35:35;8.05;;;3.30;;
24467;SDS011;12634;50.852;5.676;2023-07-20T01:38:04;6.57;;;3.30;;
24467;SDS011;12634;50.852;5.676;2023-07-20T01:40:32;7.57;;;3.25;;
24467;SDS011;12634;50.852;5.676;2023-07-20T01:43:00;6.05;;;2.70;;
24467;SDS011;12634;50.852;5.676;2023-07-20T01:45:28;6.10;;;2.70;;
24467;SDS011;12634;50.852;5.676;2023-07-20T01:47:56;6.60;;;2.92;;
24467;SDS011;12634;50.852;5.676;2023-07-20T01:50:24;5.03;;;3.17;;
24467;SDS011;12634;50.852;5.676;2023-07-20T01:52:52;7.47;;;2.90;;
24467;SDS011;12634;50.852;5.676;2023-07-20T01:55:19;7.03;;;3.08;;
24467;SDS011;12634;50.852;5.676;2023-07-20T01:57:46;6.22;;;2.47;;
24467;SDS011;12634;50.852;5.676;2023-07-20T02:00:13;7.50;;;2.67;;
24467;SDS011;12634;50.852;5.676;2023-07-20T02:02:41;7.50;;;2.95;;
24467;SDS011;12634;50.852;5.676;2023-07-20T02:05:08;6.32;;;2.72;;
24467;SDS011;12634;50.852;5.676;2023-07-20T02:07:37;12.35;;;3.58;;
24467;SDS011;12634;50.852;5.676;2023-07-20T02:10:05;8.20;;;2.50;;
24467;SDS011;12634;50.852;5.676;2023-07-20T02:12:32;7.70;;;2.92;;
24467;SDS011;12634;50.852;5.676;2023-07-20T02:15:00;5.22;;;2.85;;
24467;SDS011;12634;50.852;5.676;2023-07-20T02:17:27;7.80;;;2.95;;
24467;SDS011;12634;50.852;5.676;2023-07-20T02:19:55;7.70;;;2.75;;
24467;SDS011;12634;50.852;5.676;2023-07-20T02:22:23;5.55;;;2.72;;
24467;SDS011;12634;50.852;5.676;2023-07-20T02:24:51;7.47;;;2.72;;
24467;SDS011;12634;50.852;5.676;2023-07-20T02:27:18;4.90;;;2.40;;
24467;SDS011;12634;50.852;5.676;2023-07-20T02:29:45;6.25;;;2.72;;
24467;SDS011;12634;50.852;5.676;2023-07-20T02:32:12;6.20;;;2.70;;
24467;SDS011;12634;50.852;5.676;2023-07-20T02:34:40;7.00;;;2.50;;
24467;SDS011;12634;50.852;5.676;2023-07-20T02:37:07;7.78;;;2.45;;
24467;SDS011;12634;50.852;5.676;2023-07-20T02:39:34;6.15;;;2.35;;
24467;SDS011;12634;50.852;5.676;2023-07-20T02:42:03;6.70;;;2.55;;
24467;SDS011;12634;50.852;5.676;2023-07-20T02:44:30;6.53;;;2.42;;
24467;SDS011;12634;50.852;5.676;2023-07-20T02:46:57;9.27;;;2.80;;
24467;SDS011;12634;50.852;5.676;2023-07-20T02:49:24;5.88;;;2.45;;
24467;SDS011;12634;50.852;5.676;2023-07-20T02:51:52;8.30;;;2.60;;
24467;SDS011;12634;50.852;5.676;2023-07-20T02:54:19;5.35;;;2.63;;
24467;SDS011;12634;50.852;5.676;2023-07-20T02:56:47;8.57;;;2.72;;
24467;SDS011;12634;50.852;5.676;2023-07-20T02:59:15;6.18;;;2.85;;
24467;SDS011;12634;50.852;5.676;2023-07-20T03:01:43;7.07;;;3.08;;
24467;SDS011;12634;50.852;5.676;2023-07-20T03:04:10;11.98;;;3.95;;
24467;SDS011;12634;50.852;5.676;2023-07-20T03:06:38;13.57;;;3.00;;
24467;SDS011;12634;50.852;5.676;2023-07-20T03:09:05;8.20;;;2.85;;
24467;SDS011;12634;50.852;5.676;2023-07-20T03:11:32;7.18;;;2.90;;
24467;SDS011;12634;50.852;5.676;2023-07-20T03:13:59;10.13;;;3.85;;
24467;SDS011;12634;50.852;5.676;2023-07-20T03:16:28;8.32;;;2.97;;
24467;SDS011;12634;50.852;5.676;2023-07-20T03:18:55;6.78;;;3.03;;
24467;SDS011;12634;50.852;5.676;2023-07-20T03:21:22;6.43;;;2.88;;
24467;SDS011;12634;50.852;5.676;2023-07-20T03:23:49;10.23;;;3.45;;
24467;SDS011;12634;50.852;5.676;2023-07-20T03:26:17;10.60;;;4.03;;
24467;SDS011;12634;50.852;5.676;2023-07-20T03:28:44;8.73;;;3.95;;
24467;SDS011;12634;50.852;5.676;2023-07-20T03:31:11;10.20;;;3.88;;
24467;SDS011;12634;50.852;5.676;2023-07-20T03:33:41;7.03;;;3.22;;
24467;SDS011;12634;50.852;5.676;2023-07-20T03:36:08;7.35;;;3.45;;
24467;SDS011;12634;50.852;5.676;2023-07-20T03:38:35;10.30;;;3.15;;
24467;SDS011;12634;50.852;5.676;2023-07-20T03:41:03;9.02;;;3.70;;
24467;SDS011;12634;50.852;5.676;2023-07-20T03:43:30;13.43;;;3.72;;
24467;SDS011;12634;50.852;5.676;2023-07-20T03:45:57;8.10;;;3.80;;
24467;SDS011;12634;50.852;5.676;2023-07-20T03:48:24;8.10;;;3.22;;
24467;SDS011;12634;50.852;5.676;2023-07-20T03:50:53;7.93;;;3.60;;
24467;SDS011;12634;50.852;5.676;2023-07-20T03:53:20;8.25;;;3.67;;
24467;SDS011;12634;50.852;5.676;2023-07-20T03:55:48;9.52;;;4.15;;
24467;SDS011;12634;50.852;5.676;2023-07-20T03:58:16;10.05;;;3.72;;
24467;SDS011;12634;50.852;5.676;2023-07-20T04:00:44;8.52;;;3.72;;
24467;SDS011;12634;50.852;5.676;2023-07-20T04:03:12;6.68;;;4.05;;
24467;SDS011;12634;50.852;5.676;2023-07-20T04:05:39;7.57;;;3.72;;
24467;SDS011;12634;50.852;5.676;2023-07-20T04:08:08;7.55;;;4.40;;
24467;SDS011;12634;50.852;5.676;2023-07-20T04:10:36;8.65;;;4.07;;
24467;SDS011;12634;50.852;5.676;2023-07-20T04:13:03;12.27;;;4.35;;
24467;SDS011;12634;50.852;5.676;2023-07-20T04:15:31;6.93;;;4.50;;
24467;SDS011;12634;50.852;5.676;2023-07-20T04:17:59;12.68;;;4.50;;
24467;SDS011;12634;50.852;5.676;2023-07-20T04:20:26;8.23;;;4.43;;
24467;SDS011;12634;50.852;5.676;2023-07-20T04:22:53;7.65;;;3.80;;
24467;SDS011;12634;50.852;5.676;2023-07-20T04:25:21;7.55;;;4.20;;
24467;SDS011;12634;50.852;5.676;2023-07-20T04:27:49;9.65;;;4.20;;
24467;SDS011;12634;50.852;5.676;2023-07-20T04:30:17;10.82;;;4.53;;
24467;SDS011;12634;50.852;5.676;2023-07-20T04:32:46;7.88;;;4.25;;
24467;SDS011;12634;50.852;5.676;2023-07-20T04:35:16;9.00;;;5.03;;
24467;SDS011;12634;50.852;5.676;2023-07-20T04:37:44;13.07;;;5.07;;
24467;SDS011;12634;50.852;5.676;2023-07-20T04:40:12;12.65;;;5.10;;
24467;SDS011;12634;50.852;5.676;2023-07-20T04:42:41;10.60;;;5.18;;
24467;SDS011;12634;50.852;5.676;2023-07-20T04:45:08;12.30;;;5.38;;
24467;SDS011;12634;50.852;5.676;2023-07-20T04:47:36;11.15;;;4.57;;
24467;SDS011;12634;50.852;5.676;2023-07-20T04:50:03;9.32;;;4.53;;
24467;SDS011;12634;50.852;5.676;2023-07-20T04:52:31;10.07;;;4.47;;
24467;SDS011;12634;50.852;5.676;2023-07-20T04:54:58;6.90;;;4.45;;
24467;SDS011;12634;50.852;5.676;2023-07-20T04:57:25;11.20;;;5.57;;
24467;SDS011;12634;50.852;5.676;2023-07-20T04:59:54;13.00;;;5.97;;
24467;SDS011;12634;50.852;5.676;2023-07-20T05:02:21;9.43;;;5.47;;
24467;SDS011;12634;50.852;5.676;2023-07-20T05:04:48;12.98;;;6.22;;
24467;SDS011;12634;50.852;5.676;2023-07-20T05:07:15;9.32;;;6.00;;
24467;SDS011;12634;50.852;5.676;2023-07-20T05:09:42;13.30;;;5.90;;
24467;SDS011;12634;50.852;5.676;2023-07-20T05:12:10;11.73;;;6.13;;
24467;SDS011;12634;50.852;5.676;2023-07-20T05:14:37;12.02;;;6.40;;
24467;SDS011;12634;50.852;5.676;2023-07-20T05:17:08;14.80;;;5.72;;
24467;SDS011;12634;50.852;5.676;2023-07-20T05:19:35;10.98;;;5.50;;
24467;SDS011;12634;50.852;5.676;2023-07-20T05:22:02;15.23;;;6.20;;
24467;SDS011;12634;50.852;5.676;2023-07-20T05:24:30;12.70;;;6.30;;
24467;SDS011;12634;50.852;5.676;2023-07-20T05:26:58;16.95;;;6.20;;
24467;SDS011;12634;50.852;5.676;2023-07-20T05:29:25;14.23;;;6.00;;
24467;SDS011;12634;50.852;5.676;2023-07-20T05:31:52;12.52;;;6.40;;
24467;SDS011;12634;50.852;5.676;2023-07-20T05:34:21;11.70;;;5.93;;
24467;SDS011;12634;50.852;5.676;2023-07-20T05:36:48;11.80;;;6.13;;
24467;SDS011;12634;50.852;5.676;2023-07-20T05:39:16;12.52;;;6.60;;
24467;SDS011;12634;50.852;5.676;2023-07-20T05:41:43;11.80;;;7.43;;
24467;SDS011;12634;50.852;5.676;2023-07-20T05:44:11;11.18;;;7.07;;
24467;SDS011;12634;50.852;5.676;2023-07-20T05:46:38;12.90;;;6.63;;
24467;SDS011;12634;50.852;5.676;2023-07-20T05:49:05;14.38;;;7.82;;
24467;SDS011;12634;50.852;5.676;2023-07-20T05:51:33;12.25;;;8.30;;
24467;SDS011;12634;50.852;5.676;2023-07-20T05:54:01;14.95;;;8.40;;
24467;SDS011;12634;50.852;5.676;2023-07-20T05:56:28;13.77;;;7.53;;
24467;SDS011;12634;50.852;5.676;2023-07-20T05:58:55;12.63;;;8.18;;
24467;SDS011;12634;50.852;5.676;2023-07-20T06:01:22;12.07;;;8.77;;
24467;SDS011;12634;50.852;5.676;2023-07-20T06:03:52;11.70;;;8.70;;
24467;SDS011;12634;50.852;5.676;2023-07-20T06:06:19;12.23;;;7.82;;
24467;SDS011;12634;50.852;5.676;2023-07-20T06:08:48;13.38;;;8.85;;
24467;SDS011;12634;50.852;5.676;2023-07-20T06:11:15;12.15;;;8.55;;
24467;SDS011;12634;50.852;5.676;2023-07-20T06:13:42;12.73;;;9.57;;
24467;SDS011;12634;50.852;5.676;2023-07-20T06:16:09;11.57;;;9.23;;
24467;SDS011;12634;50.852;5.676;2023-07-20T06:18:37;12.10;;;9.10;;
24467;SDS011;12634;50.852;5.676;2023-07-20T06:21:04;12.85;;;8.65;;
24467;SDS011;12634;50.852;5.676;2023-07-20T06:23:31;14.60;;;9.10;;
24467;SDS011;12634;50.852;5.676;2023-07-20T06:25:59;11.43;;;8.55;;
24467;SDS011;12634;50.852;5.676;2023-07-20T06:28:27;13.65;;;8.40;;
24467;SDS011;12634;50.852;5.676;2023-07-20T06:30:58;13.25;;;8.40;;
24467;SDS011;12634;50.852;5.676;2023-07-20T06:33:29;11.50;;;8.88;;
24467;SDS011;12634;50.852;5.676;2023-07-20T06:35:57;12.82;;;8.90;;
24467;SDS011;12634;50.852;5.676;2023-07-20T06:38:24;11.35;;;7.85;;
24467;SDS011;12634;50.852;5.676;2023-07-20T06:40:52;13.68;;;7.90;;
24467;SDS011;12634;50.852;5.676;2023-07-20T06:43:20;14.90;;;8.88;;
24467;SDS011;12634;50.852;5.676;2023-07-20T06:45:50;11.82;;;7.65;;
24467;SDS011;12634;50.852;5.676;2023-07-20T06:48:19;10.48;;;7.13;;
24467;SDS011;12634;50.852;5.676;2023-07-20T06:50:46;12.40;;;7.68;;
24467;SDS011;12634;50.852;5.676;2023-07-20T06:53:13;8.95;;;6.68;;
24467;SDS011;12634;50.852;5.676;2023-07-20T06:55:41;9.07;;;6.72;;
24467;SDS011;12634;50.852;5.676;2023-07-20T06:58:09;15.10;;;6.68;;
24467;SDS011;12634;50.852;5.676;2023-07-20T07:00:37;10.00;;;4.95;;
24467;SDS011;12634;50.852;5.676;2023-07-20T07:03:04;9.82;;;5.65;;
24467;SDS011;12634;50.852;5.676;2023-07-20T07:05:35;8.65;;;5.95;;
24467;SDS011;12634;50.852;5.676;2023-07-20T07:08:03;9.00;;;6.28;;
24467;SDS011;12634;50.852;5.676;2023-07-20T07:10:31;8.68;;;6.15;;
24467;SDS011;12634;50.852;5.676;2023-07-20T07:12:58;7.97;;;4.82;;
24467;SDS011;12634;50.852;5.676;2023-07-20T07:15:25;7.68;;;5.88;;
24467;SDS011;12634;50.852;5.676;2023-07-20T07:17:54;7.82;;;5.32;;
24467;SDS011;12634;50.852;5.676;2023-07-20T07:20:22;10.75;;;6.15;;
24467;SDS011;12634;50.852;5.676;2023-07-20T07:22:50;6.50;;;5.10;;
24467;SDS011;12634;50.852;5.676;2023-07-20T07:25:18;5.80;;;4.47;;
24467;SDS011;12634;50.852;5.676;2023-07-20T07:27:45;6.30;;;4.53;;
24467;SDS011;12634;50.852;5.676;2023-07-20T07:30:12;8.20;;;3.80;;
24467;SDS011;12634;50.852;5.676;2023-07-20T07:32:40;10.15;;;4.95;;
24467;SDS011;12634;50.852;5.676;2023-07-20T07:35:09;7.60;;;5.20;;
24467;SDS011;12634;50.852;5.676;2023-07-20T07:37:36;5.82;;;3.70;;
24467;SDS011;12634;50.852;5.676;2023-07-20T07:40:04;9.70;;;4.32;;
24467;SDS011;12634;50.852;5.676;2023-07-20T07:42:33;7.97;;;3.97;;
24467;SDS011;12634;50.852;5.676;2023-07-20T07:45:00;5.03;;;3.58;;
24467;SDS011;12634;50.852;5.676;2023-07-20T07:47:28;6.35;;;4.53;;
24467;SDS011;12634;50.852;5.676;2023-07-20T07:49:55;5.95;;;3.95;;
24467;SDS011;12634;50.852;5.676;2023-07-20T07:52:24;7.53;;;4.80;;
24467;SDS011;12634;50.852;5.676;2023-07-20T07:54:51;8.27;;;4.45;;
24467;SDS011;12634;50.852;5.676;2023-07-20T07:57:18;6.30;;;3.95;;
24467;SDS011;12634;50.852;5.676;2023-07-20T07:59:45;5.32;;;3.72;;
24467;SDS011;12634;50.852;5.676;2023-07-20T08:02:13;7.00;;;4.10;;
24467;SDS011;12634;50.852;5.676;2023-07-20T08:04:40;5.10;;;3.08;;
24467;SDS011;12634;50.852;5.676;2023-07-20T08:07:07;4.53;;;2.88;;
24467;SDS011;12634;50.852;5.676;2023-07-20T08:09:35;5.40;;;3.20;;
24467;SDS011;12634;50.852;5.676;2023-07-20T08:12:03;6.85;;;3.42;;
24467;SDS011;12634;50.852;5.676;2023-07-20T08:14:31;4.60;;;2.80;;
24467;SDS011;12634;50.852;5.676;2023-07-20T08:16:58;4.45;;;2.17;;
24467;SDS011;12634;50.852;5.676;2023-07-20T08:19:25;6.20;;;2.33;;
24467;SDS011;12634;50.852;5.676;2023-07-20T08:21:52;4.32;;;2.28;;
24467;SDS011;12634;50.852;5.676;2023-07-20T08:24:19;4.30;;;2.60;;
24467;SDS011;12634;50.852;5.676;2023-07-20T08:26:48;3.90;;;2.05;;
24467;SDS011;12634;50.852;5.676;2023-07-20T08:29:15;5.93;;;3.10;;
24467;SDS011;12634;50.852;5.676;2023-07-20T08:31:42;6.03;;;2.78;;
24467;SDS011;12634;50.852;5.676;2023-07-20T08:34:11;6.07;;;3.17;;
24467;SDS011;12634;50.852;5.676;2023-07-20T08:36:38;5.50;;;2.90;;
24467;SDS011;12634;50.852;5.676;2023-07-20T08:39:05;7.15;;;3.47;;
24467;SDS011;12634;50.852;5.676;2023-07-20T08:41:33;4.80;;;2.80;;
24467;SDS011;12634;50.852;5.676;2023-07-20T08:44:02;7.03;;;3.70;;
24467;SDS011;12634;50.852;5.676;2023-07-20T08:46:30;7.72;;;3.70;;
24467;SDS011;12634;50.852;5.676;2023-07-20T08:48:57;8.85;;;3.28;;
24467;SDS011;12634;50.852;5.676;2023-07-20T08:51:27;4.40;;;2.75;;
24467;SDS011;12634;50.852;5.676;2023-07-20T08:53:55;5.80;;;2.05;;
24467;SDS011;12634;50.852;5.676;2023-07-20T08:56:25;4.90;;;2.30;;
24467;SDS011;12634;50.852;5.676;2023-07-20T08:58:53;3.45;;;2.10;;
24467;SDS011;12634;50.852;5.676;2023-07-20T09:01:21;4.63;;;2.80;;
24467;SDS011;12634;50.852;5.676;2023-07-20T09:03:49;5.38;;;3.88;;
24467;SDS011;12634;50.852;5.676;2023-07-20T09:06:16;3.88;;;2.78;;
24467;SDS011;12634;50.852;5.676;2023-07-20T09:08:44;6.13;;;2.38;;
24467;SDS011;12634;50.852;5.676;2023-07-20T09:11:12;5.82;;;2.05;;
24467;SDS011;12634;50.852;5.676;2023-07-20T09:13:40;3.05;;;1.85;;
24467;SDS011;12634;50.852;5.676;2023-07-20T09:16:08;2.88;;;2.10;;
24467;SDS011;12634;50.852;5.676;2023-07-20T09:18:41;2.88;;;1.30;;
24467;SDS011;12634;50.852;5.676;2023-07-20T09:21:08;4.93;;;1.90;;
24467;SDS011;12634;50.852;5.676;2023-07-20T09:23:36;3.60;;;1.50;;
24467;SDS011;12634;50.852;5.676;2023-07-20T09:26:09;3.25;;;1.80;;
24467;SDS011;12634;50.852;5.676;2023-07-20T09:28:41;3.13;;;1.38;;
24467;SDS011;12634;50.852;5.676;2023-07-20T09:31:15;4.82;;;1.58;;
24467;SDS011;12634;50.852;5.676;2023-07-20T09:33:44;3.80;;;1.90;;
24467;SDS011;12634;50.852;5.676;2023-07-20T09:36:11;2.97;;;1.50;;
24467;SDS011;12634;50.852;5.676;2023-07-20T09:38:39;3.75;;;2.15;;
24467;SDS011;12634;50.852;5.676;2023-07-20T09:41:08;3.33;;;1.85;;
24467;SDS011;12634;50.852;5.676;2023-07-20T09:43:39;5.18;;;2.10;;
24467;SDS011;12634;50.852;5.676;2023-07-20T09:46:06;3.22;;;1.40;;
24467;SDS011;12634;50.852;5.676;2023-07-20T09:48:34;3.20;;;1.50;;
24467;SDS011;12634;50.852;5.676;2023-07-20T09:51:02;2.85;;;1.40;;
24467;SDS011;12634;50.852;5.676;2023-07-20T09:53:32;1.73;;;1.20;;
24467;SDS011;12634;50.852;5.676;2023-07-20T09:56:00;3.15;;;1.30;;
24467;SDS011;12634;50.852;5.676;2023-07-20T09:58:28;3.80;;;1.30;;
24467;SDS011;12634;50.852;5.676;2023-07-20T10:00:57;1.75;;;1.20;;
24467;SDS011;12634;50.852;5.676;2023-07-20T10:03:26;2.97;;;1.00;;
24467;SDS011;12634;50.852;5.676;2023-07-20T10:05:56;1.83;;;1.15;;
24467;SDS011;12634;50.852;5.676;2023-07-20T10:08:30;3.63;;;1.15;;
24467;SDS011;12634;50.852;5.676;2023-07-20T10:11:02;2.45;;;1.08;;
24467;SDS011;12634;50.852;5.676;2023-07-20T10:13:30;1.88;;;1.00;;
24467;SDS011;12634;50.852;5.676;2023-07-20T10:15:59;2.45;;;1.05;;
24467;SDS011;12634;50.852;5.676;2023-07-20T10:18:30;2.58;;;1.30;;
24467;SDS011;12634;50.852;5.676;2023-07-20T10:21:01;5.13;;;1.33;;
24467;SDS011;12634;50.852;5.676;2023-07-20T10:23:31;3.85;;;1.23;;
24467;SDS011;12634;50.852;5.676;2023-07-20T10:25:59;1.60;;;0.93;;
24467;SDS011;12634;50.852;5.676;2023-07-20T10:28:28;1.88;;;0.70;;
24467;SDS011;12634;50.852;5.676;2023-07-20T10:30:55;0.68;;;0.55;;
24467;SDS011;12634;50.852;5.676;2023-07-20T10:33:23;2.35;;;0.73;;
24467;SDS011;12634;50.852;5.676;2023-07-20T10:35:51;1.20;;;0.70;;
24467;SDS011;12634;50.852;5.676;2023-07-20T10:38:19;3.47;;;0.98;;
24467;SDS011;12634;50.852;5.676;2023-07-20T10:40:55;1.02;;;0.70;;
24467;SDS011;12634;50.852;5.676;2023-07-20T10:43:22;1.35;;;1.00;;
24467;SDS011;12634;50.852;5.676;2023-07-20T10:45:51;3.53;;;0.90;;
24467;SDS011;12634;50.852;5.676;2023-07-20T10:48:19;2.90;;;0.88;;
24467;SDS011;12634;50.852;5.676;2023-07-20T10:53:40;1.63;;;1.00;;
24467;SDS011;12634;50.852;5.676;2023-07-20T10:56:11;2.88;;;0.80;;
24467;SDS011;12634;50.852;5.676;2023-07-20T10:58:39;1.73;;;0.85;;
24467;SDS011;12634;50.852;5.676;2023-07-20T11:01:07;1.60;;;0.80;;
24467;SDS011;12634;50.852;5.676;2023-07-20T11:03:39;3.05;;;0.90;;
24467;SDS011;12634;50.852;5.676;2023-07-20T11:09:09;1.07;;;0.87;;
24467;SDS011;12634;50.852;5.676;2023-07-20T11:11:41;3.60;;;1.10;;
24467;SDS011;12634;50.852;5.676;2023-07-20T11:14:09;2.97;;;0.90;;
24467;SDS011;12634;50.852;5.676;2023-07-20T11:16:47;3.05;;;0.88;;
24467;SDS011;12634;50.852;5.676;2023-07-20T11:19:17;1.75;;;1.10;;
24467;SDS011;12634;50.852;5.676;2023-07-20T11:21:45;2.20;;;1.20;;
24467;SDS011;12634;50.852;5.676;2023-07-20T11:24:17;2.03;;;1.00;;
24467;SDS011;12634;50.852;5.676;2023-07-20T11:26:47;1.10;;;0.70;;
24467;SDS011;12634;50.852;5.676;2023-07-20T11:29:15;2.60;;;0.93;;
24467;SDS011;12634;50.852;5.676;2023-07-20T11:31:44;2.95;;;1.05;;
24467;SDS011;12634;50.852;5.676;2023-07-20T11:34:13;3.42;;;0.98;;
24467;SDS011;12634;50.852;5.676;2023-07-20T11:36:43;2.25;;;1.48;;
24467;SDS011;12634;50.852;5.676;2023-07-20T11:39:12;2.20;;;1.20;;
24467;SDS011;12634;50.852;5.676;2023-07-20T11:41:43;1.58;;;0.80;;
24467;SDS011;12634;50.852;5.676;2023-07-20T11:44:14;1.73;;;0.90;;
24467;SDS011;12634;50.852;5.676;2023-07-20T11:46:42;2.13;;;1.00;;
24467;SDS011;12634;50.852;5.676;2023-07-20T11:49:10;4.82;;;0.90;;
24467;SDS011;12634;50.852;5.676;2023-07-20T11:51:39;2.85;;;0.80;;
24467;SDS011;12634;50.852;5.676;2023-07-20T11:54:07;1.77;;;0.95;;
24467;SDS011;12634;50.852;5.676;2023-07-20T11:56:35;1.98;;;1.00;;
24467;SDS011;12634;50.852;5.676;2023-07-20T11:59:02;2.03;;;1.08;;
24467;SDS011;12634;50.852;5.676;2023-07-20T12:01:31;1.95;;;1.10;;
24467;SDS011;12634;50.852;5.676;2023-07-20T12:04:00;2.20;;;1.20;;
24467;SDS011;12634;50.852;5.676;2023-07-20T12:06:28;1.98;;;0.90;;
24467;SDS011;12634;50.852;5.676;2023-07-20T12:08:57;2.22;;;1.00;;
24467;SDS011;12634;50.852;5.676;2023-07-20T12:11:32;1.92;;;0.93;;
24467;SDS011;12634;50.852;5.676;2023-07-20T12:14:00;3.90;;;1.00;;
24467;SDS011;12634;50.852;5.676;2023-07-20T12:16:29;1.88;;;0.90;;
24467;SDS011;12634;50.852;5.676;2023-07-20T12:19:01;2.08;;;1.10;;
24467;SDS011;12634;50.852;5.676;2023-07-20T12:21:29;2.28;;;1.10;;
24467;SDS011;12634;50.852;5.676;2023-07-20T12:23:56;2.33;;;1.17;;
24467;SDS011;12634;50.852;5.676;2023-07-20T12:26:24;1.90;;;0.80;;
24467;SDS011;12634;50.852;5.676;2023-07-20T12:28:52;2.08;;;1.00;;
24467;SDS011;12634;50.852;5.676;2023-07-20T12:31:20;2.97;;;0.88;;
24467;SDS011;12634;50.852;5.676;2023-07-20T12:33:50;2.10;;;0.60;;
24467;SDS011;12634;50.852;5.676;2023-07-20T12:36:17;2.33;;;0.85;;
24467;SDS011;12634;50.852;5.676;2023-07-20T12:38:45;2.35;;;0.70;;
24467;SDS011;12634;50.852;5.676;2023-07-20T12:41:12;1.45;;;0.70;;
24467;SDS011;12634;50.852;5.676;2023-07-20T12:43:40;1.45;;;0.65;;
24467;SDS011;12634;50.852;5.676;2023-07-20T12:46:07;1.33;;;0.70;;
24467;SDS011;12634;50.852;5.676;2023-07-20T12:48:35;2.45;;;1.00;;
24467;SDS011;12634;50.852;5.676;2023-07-20T12:51:04;0.85;;;0.60;;
24467;SDS011;12634;50.852;5.676;2023-07-20T12:53:32;1.30;;;0.70;;
24467;SDS011;12634;50.852;5.676;2023-07-20T12:55:59;0.85;;;0.70;;
24467;SDS011;12634;50.852;5.676;2023-07-20T12:58:27;2.40;;;1.10;;
24467;SDS011;12634;50.852;5.676;2023-07-20T13:00:54;1.10;;;0.63;;
24467;SDS011;12634;50.852;5.676;2023-07-20T13:03:21;1.60;;;1.00;;
24467;SDS011;12634;50.852;5.676;2023-07-20T13:05:48;1.80;;;0.70;;
24467;SDS011;12634;50.852;5.676;2023-07-20T13:08:18;2.47;;;0.95;;
24467;SDS011;12634;50.852;5.676;2023-07-20T13:10:45;3.38;;;0.85;;
24467;SDS011;12634;50.852;5.676;2023-07-20T13:13:13;2.17;;;0.80;;
24467;SDS011;12634;50.852;5.676;2023-07-20T13:15:40;1.50;;;0.82;;
24467;SDS011;12634;50.852;5.676;2023-07-20T13:18:09;1.48;;;0.73;;
24467;SDS011;12634;50.852;5.676;2023-07-20T13:20:36;1.23;;;0.50;;
24467;SDS011;12634;50.852;5.676;2023-07-20T13:23:04;2.38;;;0.70;;
24467;SDS011;12634;50.852;5.676;2023-07-20T13:25:32;1.77;;;0.75;;
24467;SDS011;12634;50.852;5.676;2023-07-20T13:28:00;1.10;;;0.60;;
24467;SDS011;12634;50.852;5.676;2023-07-20T13:30:27;1.33;;;0.60;;
24467;SDS011;12634;50.852;5.676;2023-07-20T13:32:54;1.52;;;0.68;;
24467;SDS011;12634;50.852;5.676;2023-07-20T13:35:22;1.65;;;0.57;;
24467;SDS011;12634;50.852;5.676;2023-07-20T13:37:49;2.03;;;0.90;;
24467;SDS011;12634;50.852;5.676;2023-07-20T13:40:16;3.75;;;0.98;;
24467;SDS011;12634;50.852;5.676;2023-07-20T13:42:46;1.85;;;0.70;;
24467;SDS011;12634;50.852;5.676;2023-07-20T13:45:13;1.30;;;0.60;;
24467;SDS011;12634;50.852;5.676;2023-07-20T13:47:40;1.15;;;0.57;;
24467;SDS011;12634;50.852;5.676;2023-07-20T13:50:07;1.23;;;0.65;;
24467;SDS011;12634;50.852;5.676;2023-07-20T13:52:36;1.95;;;0.70;;
24467;SDS011;12634;50.852;5.676;2023-07-20T13:55:03;2.75;;;0.80;;
24467;SDS011;12634;50.852;5.676;2023-07-20T13:57:31;1.25;;;0.68;;
24467;SDS011;12634;50.852;5.676;2023-07-20T13:59:59;2.75;;;1.08;;
24467;SDS011;12634;50.852;5.676;2023-07-20T14:02:27;2.53;;;0.77;;
24467;SDS011;12634;50.852;5.676;2023-07-20T14:04:54;1.33;;;0.82;;
24467;SDS011;12634;50.852;5.676;2023-07-20T14:07:22;1.25;;;0.80;;
24467;SDS011;12634;50.852;5.676;2023-07-20T14:09:49;2.38;;;0.90;;
24467;SDS011;12634;50.852;5.676;2023-07-20T14:12:16;1.30;;;0.70;;
24467;SDS011;12634;50.852;5.676;2023-07-20T14:14:43;0.60;;;0.50;;
24467;SDS011;12634;50.852;5.676;2023-07-20T14:17:12;1.17;;;0.70;;
24467;SDS011;12634;50.852;5.676;2023-07-20T14:19:39;2.63;;;0.73;;
24467;SDS011;12634;50.852;5.676;2023-07-20T14:22:06;2.22;;;0.60;;
24467;SDS011;12634;50.852;5.676;2023-07-20T14:24:33;1.60;;;0.93;;
24467;SDS011;12634;50.852;5.676;2023-07-20T14:27:00;1.77;;;0.80;;
24467;SDS011;12634;50.852;5.676;2023-07-20T14:29:28;1.45;;;0.70;;
24467;SDS011;12634;50.852;5.676;2023-07-20T14:31:57;1.45;;;0.70;;
24467;SDS011;12634;50.852;5.676;2023-07-20T14:34:26;2.72;;;0.80;;
24467;SDS011;12634;50.852;5.676;2023-07-20T14:36:53;2.35;;;1.00;;
24467;SDS011;12634;50.852;5.676;2023-07-20T14:39:20;1.48;;;0.70;;
24467;SDS011;12634;50.852;5.676;2023-07-20T14:41:49;1.48;;;0.70;;
24467;SDS011;12634;50.852;5.676;2023-07-20T14:44:17;1.00;;;0.75;;
24467;SDS011;12634;50.852;5.676;2023-07-20T14:46:45;2.28;;;1.25;;
24467;SDS011;12634;50.852;5.676;2023-07-20T14:49:12;1.48;;;0.70;;
24467;SDS011;12634;50.852;5.676;2023-07-20T14:51:41;1.70;;;0.70;;
24467;SDS011;12634;50.852;5.676;2023-07-20T14:54:12;2.28;;;0.73;;
24467;SDS011;12634;50.852;5.676;2023-07-20T14:56:39;0.95;;;0.63;;
24467;SDS011;12634;50.852;5.676;2023-07-20T14:59:15;1.25;;;0.70;;
24467;SDS011;12634;50.852;5.676;2023-07-20T15:01:42;1.50;;;0.77;;
24467;SDS011;12634;50.852;5.676;2023-07-20T15:04:11;1.77;;;0.57;;